Time;durP1;ratioP1;P1;durP2;ratioP2;P2;SDS_P1;SDS_P2;PMS_P1;PMS_P2;Temp;Humidity;BMP_temperature;BMP_pressure;BME280_temperature;BME280_humidity;BME280_pressure;Samples;Min_cycle;Max_cycle;Signal;HPM_P1;HPM_P2
2022/01/19 00:01:12;;;;;;;9.90;4.68;;;;;;;1.34;100.00;101478.50;4970458;28;20398;-62
2022/01/19 00:03:38;;;;;;;12.35;4.65;;;;;;;1.51;100.00;101510.84;4971484;28;20062;-62
2022/01/19 00:06:03;;;;;;;9.88;4.88;;;;;;;1.73;100.00;101550.84;4971797;28;20023;-62
2022/01/19 00:08:29;;;;;;;8.32;4.18;;;;;;;1.54;100.00;101523.47;4971504;28;20030;-62
2022/01/19 00:10:56;;;;;;;9.15;4.13;;;;;;;1.24;100.00;101509.91;4971320;28;21272;-62
2022/01/19 00:13:22;;;;;;;7.93;4.32;;;;;;;1.61;100.00;101557.09;4971521;28;20035;-62
2022/01/19 00:15:48;;;;;;;9.48;4.10;;;;;;;1.53;100.00;101555.97;4970248;28;20042;-62
2022/01/19 00:18:17;;;;;;;10.10;5.85;;;;;;;1.52;100.00;101545.13;4971679;28;20038;-62
2022/01/19 00:20:42;;;;;;;8.38;4.55;;;;;;;1.58;100.00;101567.03;4971464;28;20041;-62
2022/01/19 00:23:09;;;;;;;11.50;4.30;;;;;;;1.46;100.00;101547.41;4971243;28;20035;-62
2022/01/19 00:25:35;;;;;;;11.10;5.55;;;;;;;1.40;100.00;101529.69;4970345;28;20405;-65
2022/01/19 00:28:00;;;;;;;6.20;3.70;;;;;;;1.69;99.24;101568.22;4969578;28;20043;-62
2022/01/19 00:30:27;;;;;;;7.85;3.58;;;;;;;1.68;100.00;101574.88;4971596;28;20530;-62
2022/01/19 00:32:53;;;;;;;6.60;3.55;;;;;;;1.52;100.00;101574.31;4971472;28;20035;-62
2022/01/19 00:35:18;;;;;;;8.57;4.68;;;;;;;1.23;100.00;101525.72;4971320;28;20030;-63
2022/01/19 00:37:44;;;;;;;9.00;3.90;;;;;;;1.48;100.00;101562.50;4971204;28;20026;-63
2022/01/19 00:40:14;;;;;;;8.63;4.60;;;;;;;1.44;100.00;101574.06;4970957;28;20042;-62
2022/01/19 00:42:39;;;;;;;8.95;5.05;;;;;;;1.42;100.00;101588.19;4971459;28;20504;-63
2022/01/19 00:45:06;;;;;;;10.60;4.88;;;;;;;1.28;100.00;101554.31;4971334;28;20047;-62
2022/01/19 00:47:31;;;;;;;11.25;4.78;;;;;;;1.34;100.00;101582.06;4969872;28;20033;-62
2022/01/19 00:49:57;;;;;;;11.10;4.70;;;;;;;1.58;100.00;101594.59;4970946;28;20027;-62
2022/01/19 00:52:23;;;;;;;10.43;4.70;;;;;;;1.34;100.00;101574.56;4971390;28;20495;-62
2022/01/19 00:54:48;;;;;;;8.18;4.28;;;;;;;1.24;100.00;101551.63;4971307;28;20083;-62
2022/01/19 00:57:13;;;;;;;8.90;4.20;;;;;;;1.43;100.00;101582.38;4971851;28;20035;-62
2022/01/19 00:59:39;;;;;;;10.07;4.10;;;;;;;1.31;100.00;101573.56;4974724;28;20489;-62
2022/01/19 01:02:05;;;;;;;7.23;3.47;;;;;;;1.12;100.00;101536.16;4257832;23;10021524;-63
2022/01/19 01:04:34;;;;;;;9.68;4.70;;;;;;;1.18;100.00;101547.25;5029388;28;20391;-63
2022/01/19 01:07:00;;;;;;;8.23;4.55;;;;;;;1.16;100.00;101558.88;5033131;28;20506;-63
2022/01/19 01:09:27;;;;;;;7.57;4.28;;;;;;;1.36;100.00;101580.47;5033333;28;20495;-63
2022/01/19 01:12:10;;;;;;;8.15;4.57;;;;;;;1.34;100.00;101584.56;5033277;28;20040;-62
2022/01/19 01:20:07;;;;;;;8.32;4.32;;;;;;;1.30;100.00;101580.25;5033194;28;20091;-63
2022/01/19 01:22:34;;;;;;;7.78;4.10;;;;;;;1.29;100.00;101588.53;5033066;28;20102;-62
2022/01/19 01:25:00;;;;;;;8.02;4.13;;;;;;;1.23;100.00;101578.31;5033115;28;20079;-65
2022/01/19 01:27:26;;;;;;;7.45;3.70;;;;;;;1.11;100.00;101570.38;5032880;28;20025;-65
2022/01/19 01:29:51;;;;;;;10.82;4.40;;;;;;;1.12;100.00;101576.22;5032995;28;20403;-65
2022/01/19 01:32:17;;;;;;;7.03;3.70;;;;;;;1.35;100.00;101611.31;5033147;28;20419;-64
2022/01/19 01:34:42;;;;;;;8.52;3.65;;;;;;;1.17;100.00;101560.56;5033123;28;20037;-65
2022/01/19 01:37:08;;;;;;;8.15;4.05;;;;;;;1.20;100.00;101575.72;5032823;28;20569;-62
2022/01/19 01:39:33;;;;;;;7.57;3.90;;;;;;;1.34;100.00;101592.09;5031653;28;20046;-63
2022/01/19 01:41:59;;;;;;;8.57;4.00;;;;;;;1.33;100.00;101587.84;5032656;28;20449;-62
2022/01/19 01:44:24;;;;;;;8.02;3.95;;;;;;;1.22;100.00;101596.66;5032450;28;20041;-62
2022/01/19 01:46:55;;;;;;;8.93;3.97;;;;;;;0.99;100.00;101549.91;5032938;28;20027;-63
2022/01/19 01:49:28;;;;;;;9.65;4.00;;;;;;;1.12;100.00;101559.56;5031486;28;20036;-62
2022/01/19 01:54:40;;;;;;;8.05;4.50;;;;;;;0.75;100.00;101514.00;5032172;28;20032;-63
2022/01/19 01:57:07;;;;;;;8.45;4.32;;;;;;;1.22;100.00;101583.28;5032612;28;20082;-62
2022/01/19 01:59:34;;;;;;;8.25;3.88;;;;;;;1.15;100.00;101599.72;5032558;28;20029;-63
2022/01/19 02:01:59;;;;;;;10.40;4.05;;;;;;;1.15;100.00;101584.69;5032149;28;20115;-62
2022/01/19 02:04:25;;;;;;;8.63;4.13;;;;;;;1.02;100.00;101567.53;5032930;28;20116;-63
2022/01/19 02:07:27;;;;;;;6.20;3.83;;;;;;;1.14;100.00;101589.66;5031110;28;20129;-63
2022/01/19 02:09:50;;;;;;;6.78;3.45;;;;;;;1.33;100.00;101589.50;5031179;28;20056;-63
2022/01/19 02:42:37;;;;;;;8.65;3.83;;;;;;;0.95;100.00;101587.31;5011733;28;20040;-63
2022/01/19 02:49:58;;;;;;;9.43;4.50;;;;;;;0.91;100.00;101598.00;5011903;28;20057;-63
2022/01/19 02:52:25;;;;;;;11.30;4.57;;;;;;;1.13;100.00;101615.50;5011715;28;20069;-63
2022/01/19 02:54:52;;;;;;;11.57;4.85;;;;;;;1.08;100.00;101605.31;5026505;28;20041;-63
2022/01/19 02:57:20;;;;;;;7.22;3.85;;;;;;;0.99;100.00;101582.44;5011654;28;20091;-63
2022/01/19 03:06:16;;;;;;;8.93;4.15;;;;;;;0.87;100.00;101575.34;5026899;28;20034;-63
2022/01/19 03:10:43;;;;;;;6.82;3.85;;;;;;;0.97;100.00;101611.56;5011350;28;20052;-65
2022/01/19 03:13:08;;;;;;;11.55;5.05;;;;;;;0.74;100.00;101569.84;5027010;28;20038;-64
2022/01/19 03:15:34;;;;;;;9.73;5.20;;;;;;;1.04;100.00;101618.53;5030832;28;20036;-64
2022/01/19 03:18:00;;;;;;;14.15;8.88;;;;;;;0.46;100.00;101579.59;5031216;28;20120;-64
2022/01/19 03:20:28;;;;;;;12.35;6.35;;;;;;;-0.10;100.00;101580.72;5029439;28;20108;-64
2022/01/19 03:25:23;;;;;;;11.60;5.68;;;;;;;0.29;100.00;101565.59;5030928;28;20042;-64
2022/01/19 03:27:48;;;;;;;10.63;5.68;;;;;;;0.07;100.00;101593.03;5030716;28;20108;-64
2022/01/19 03:30:16;;;;;;;11.88;5.47;;;;;;;0.43;100.00;101625.38;5030613;28;20033;-64
2022/01/19 03:32:42;;;;;;;11.05;5.55;;;;;;;0.10;100.00;101625.66;5030540;28;20048;-64
2022/01/19 03:35:09;;;;;;;11.27;6.32;;;;;;;0.28;100.00;101633.91;5030644;28;20399;-64
2022/01/19 03:37:34;;;;;;;10.40;6.32;;;;;;;0.34;100.00;101620.00;5030615;28;20048;-63
2022/01/19 03:40:00;;;;;;;9.90;5.78;;;;;;;0.20;100.00;101635.25;5030951;28;20036;-64
2022/01/19 03:42:25;;;;;;;7.88;4.53;;;;;;;0.29;100.00;101633.09;5030633;28;20112;-64
2022/01/19 03:44:51;;;;;;;9.65;5.03;;;;;;;0.21;100.00;101596.94;5029362;28;20029;-64
2022/01/19 03:47:17;;;;;;;10.68;5.22;;;;;;;0.22;100.00;101638.66;5030501;28;20021;-64
2022/01/19 03:49:43;;;;;;;13.65;6.03;;;;;;;0.09;100.00;101619.81;5030710;28;20034;-64
2022/01/19 03:52:08;;;;;;;11.85;5.80;;;;;;;-0.12;100.00;101632.28;5030497;28;20045;-64
2022/01/19 03:54:37;;;;;;;8.88;5.50;;;;;;;0.15;100.00;101657.56;5029310;28;20626;-64
2022/01/19 03:57:03;;;;;;;9.85;5.35;;;;;;;-0.01;100.00;101607.72;5030609;28;20045;-64
2022/01/19 03:59:28;;;;;;;8.80;5.97;;;;;;;-0.03;100.00;101609.31;5030337;28;20025;-65
2022/01/19 04:01:54;;;;;;;14.10;7.38;;;;;;;0.20;100.00;101653.59;5030103;28;20061;-64
2022/01/19 04:09:17;;;;;;;11.95;7.30;;;;;;;-0.10;100.00;101612.38;5030239;28;20033;-62
2022/01/19 04:11:43;;;;;;;16.60;8.77;;;;;;;0.09;100.00;101646.44;5030577;28;20033;-62
2022/01/19 04:16:34;;;;;;;29.40;14.60;;;;;;;0.06;100.00;101654.66;5030070;28;20068;-63
2022/01/19 04:19:18;;;;;;;28.52;13.27;;;;;;;-0.01;100.00;101660.22;5030513;28;20471;-63
2022/01/19 04:21:44;;;;;;;20.38;11.13;;;;;;;-0.31;100.00;101624.81;5028871;28;20125;-64
2022/01/19 04:24:09;;;;;;;16.20;8.45;;;;;;;-0.26;100.00;101637.50;5030248;28;20029;-62
2022/01/19 04:26:35;;;;;;;13.75;7.63;;;;;;;-0.26;100.00;101615.84;5029990;28;20068;-62
2022/01/19 04:29:00;;;;;;;9.77;5.90;;;;;;;-0.83;100.00;101595.06;5029945;28;20039;-64
2022/01/19 04:31:26;;;;;;;6.63;4.70;;;;;;;-0.17;100.00;101675.34;5030354;28;20040;-62
2022/01/19 04:33:51;;;;;;;19.75;6.90;;;;;;;-0.28;100.00;101684.88;5034029;28;20033;-64
2022/01/19 04:36:32;;;;;;;13.88;5.90;;;;;;;-0.57;100.00;101610.34;5033995;28;20029;-64
2022/01/19 05:15:42;;;;;;;18.02;9.68;;;;;;;-0.19;100.00;101657.81;5013089;28;20044;-64
2022/01/19 05:18:08;;;;;;;21.58;10.52;;;;;;;-0.01;100.00;101702.69;5013696;28;20038;-64
2022/01/19 05:20:34;;;;;;;23.67;12.75;;;;;;;0.16;100.00;101705.91;5013300;28;20466;-64
2022/01/19 05:23:00;;;;;;;19.27;10.68;;;;;;;0.00;100.00;101671.94;5013301;28;20057;-63
2022/01/19 05:25:25;;;;;;;14.65;8.50;;;;;;;0.08;100.00;101718.06;5011660;28;20042;-63
2022/01/19 05:27:50;;;;;;;14.27;7.47;;;;;;;0.11;100.00;101704.84;5027275;28;20036;-63
2022/01/19 05:30:17;;;;;;;14.65;7.40;;;;;;;0.18;100.00;101730.16;5031406;28;20083;-63
2022/01/19 05:32:44;;;;;;;16.10;7.20;;;;;;;0.26;100.00;101718.84;5032751;28;20029;-63
2022/01/19 05:35:10;;;;;;;16.63;8.20;;;;;;;0.14;100.00;101680.84;5032975;28;20033;-63
2022/01/19 05:37:38;;;;;;;18.80;8.48;;;;;;;0.22;100.00;101678.66;5032923;28;20095;-63
2022/01/19 05:40:08;;;;;;;14.00;6.72;;;;;;;0.00;100.00;101694.44;5032906;28;20056;-63
2022/01/19 05:42:34;;;;;;;15.35;7.85;;;;;;;0.20;100.00;101726.09;5029426;28;20069;-63
2022/01/19 05:45:00;;;;;;;14.82;7.00;;;;;;;-0.01;100.00;101691.06;5027025;28;20455;-62
2022/01/19 05:47:26;;;;;;;14.82;7.68;;;;;;;0.26;100.00;101725.50;5032890;28;20060;-62
2022/01/19 05:49:52;;;;;;;14.57;7.40;;;;;;;0.36;100.00;101728.44;5032346;28;20057;-62
2022/01/19 05:52:41;;;;;;;11.43;6.82;;;;;;;0.18;100.00;101687.66;5054829;28;20424;-61
2022/01/19 05:55:07;;;;;;;11.80;6.57;;;;;;;0.19;100.00;101688.53;5048213;28;20037;-61
2022/01/19 05:57:33;;;;;;;16.58;8.32;;;;;;;0.20;100.00;101691.09;5046403;28;20087;-61
2022/01/19 05:59:58;;;;;;;16.40;9.73;;;;;;;0.40;100.00;101729.41;5046422;28;20095;-61
2022/01/19 06:02:24;;;;;;;18.23;9.07;;;;;;;0.20;100.00;101691.09;5047617;28;20033;-61
2022/01/19 06:04:50;;;;;;;19.63;9.30;;;;;;;0.51;100.00;101729.06;5047772;28;20029;-62
2022/01/19 06:07:15;;;;;;;20.80;9.65;;;;;;;0.45;100.00;101737.97;5047235;28;20033;-62
2022/01/19 06:12:09;;;;;;;19.90;8.95;;;;;;;0.13;100.00;101683.28;5046771;28;20031;-61
2022/01/19 06:14:37;;;;;;;17.45;8.52;;;;;;;0.04;100.00;101660.41;5047369;28;20033;-61
2022/01/19 06:17:04;;;;;;;20.02;11.95;;;;;;;0.53;100.00;101714.13;5047017;28;20033;-61
2022/01/19 06:19:30;;;;;;;13.73;7.65;;;;;;;1.65;100.00;101740.19;5046647;28;20029;-61
2022/01/19 06:21:56;;;;;;;20.50;10.00;;;;;;;2.29;100.00;101720.72;5046893;28;20537;-61
2022/01/19 06:24:21;;;;;;;19.27;10.00;;;;;;;2.07;100.00;101750.88;5047281;28;20057;-61
2022/01/19 06:26:47;;;;;;;13.57;7.00;;;;;;;3.05;92.98;101751.63;5047171;28;20033;-61
2022/01/19 06:29:12;;;;;;;15.05;7.43;;;;;;;2.68;91.29;101733.72;5047663;28;20108;-61
2022/01/19 06:31:38;;;;;;;13.20;7.55;;;;;;;3.50;85.59;101729.56;5047140;28;20029;-61
2022/01/19 06:34:04;;;;;;;11.23;6.78;;;;;;;3.20;81.72;101689.31;5046963;28;20121;-61
2022/01/19 06:36:29;;;;;;;13.25;7.57;;;;;;;2.73;82.17;101732.22;5047039;28;20473;-61
2022/01/19 06:38:54;;;;;;;14.10;8.15;;;;;;;4.14;79.35;101769.91;5047207;28;20075;-61
2022/01/19 06:41:20;;;;;;;12.48;7.18;;;;;;;3.26;80.70;101716.25;5045532;28;20033;-61
2022/01/19 06:43:45;;;;;;;12.82;7.85;;;;;;;4.49;78.20;101764.13;5047049;28;20052;-61
2022/01/19 06:46:11;;;;;;;11.75;7.15;;;;;;;4.25;73.30;101766.00;5045569;28;20033;-61
2022/01/19 06:48:37;;;;;;;15.07;7.72;;;;;;;3.45;78.72;101766.25;5046699;28;20041;-61
2022/01/19 06:51:02;;;;;;;19.00;8.27;;;;;;;5.14;75.20;101771.63;5046666;28;20071;-61
2022/01/19 06:53:29;;;;;;;16.67;8.23;;;;;;;5.74;65.24;101735.91;5046883;28;20465;-61
2022/01/19 06:55:57;;;;;;;21.23;9.57;;;;;;;7.27;58.91;101724.22;5045184;28;20461;-61
2022/01/19 06:58:26;;;;;;;18.08;9.18;;;;;;;7.63;57.73;101765.19;5046751;28;20029;-61
2022/01/19 07:00:51;;;;;;;16.02;9.02;;;;;;;6.77;60.86;101744.53;5046398;28;20426;-61
2022/01/19 07:03:17;;;;;;;16.33;8.98;;;;;;;6.81;57.37;101765.69;5037296;28;20029;-61
2022/01/19 07:05:43;;;;;;;18.27;10.27;;;;;;;5.64;60.57;101707.13;5033166;28;20187;-61
2022/01/19 07:08:08;;;;;;;14.85;9.35;;;;;;;7.07;58.78;101703.72;5033303;28;20494;-61
2022/01/19 07:10:33;;;;;;;21.67;11.93;;;;;;;7.48;57.26;101730.41;5033194;28;20029;-61
2022/01/19 07:13:00;;;;;;;20.83;11.02;;;;;;;6.77;56.88;101662.84;5033324;28;20037;-61
2022/01/19 07:15:25;;;;;;;19.05;11.35;;;;;;;7.58;55.79;101719.59;5033275;28;20076;-61
2022/01/19 07:17:51;;;;;;;16.02;8.02;;;;;;;7.97;56.45;101716.66;5032530;28;20034;-61
2022/01/19 07:20:16;;;;;;;15.13;9.40;;;;;;;7.51;52.84;101656.19;5031671;28;20034;-61
2022/01/19 07:22:42;;;;;;;21.27;13.35;;;;;;;5.52;59.28;101738.81;5033105;28;20033;-61
2022/01/19 07:25:08;;;;;;;10.70;5.25;;;;;;;3.02;74.65;101774.16;5032645;28;20021;-61
2022/01/19 07:27:34;;;;;;;10.73;6.07;;;;;;;3.92;77.98;101724.88;5033149;28;20049;-61
2022/01/19 07:29:59;;;;;;;10.18;5.63;;;;;;;3.31;80.00;101734.81;5033082;28;20059;-61
2022/01/19 07:32:29;;;;;;;14.75;8.55;;;;;;;3.47;78.61;101726.94;5032247;28;20026;-61
2022/01/19 07:34:54;;;;;;;9.75;5.75;;;;;;;2.99;82.54;101789.13;5032802;28;20036;-61
2022/01/19 07:37:20;;;;;;;18.90;12.35;;;;;;;2.45;83.23;101715.41;5033206;28;20030;-61
2022/01/19 07:39:45;;;;;;;11.50;6.72;;;;;;;3.27;83.41;101725.50;5032681;28;20109;-61
2022/01/19 07:42:11;;;;;;;12.32;7.53;;;;;;;3.75;77.63;101726.03;5032774;28;20033;-61
2022/01/19 07:44:39;;;;;;;21.60;13.60;;;;;;;3.12;81.36;101733.44;5032840;28;20037;-62
2022/01/19 07:47:05;;;;;;;13.85;8.45;;;;;;;3.97;80.39;101730.84;5032421;28;20038;-61
2022/01/19 07:49:30;;;;;;;14.30;8.68;;;;;;;3.58;81.62;101780.03;5032671;28;20033;-61
2022/01/19 07:51:56;;;;;;;57.05;30.38;;;;;;;2.76;80.33;101723.91;5032043;28;20052;-61
2022/01/19 07:54:21;;;;;;;34.72;18.33;;;;;;;3.13;81.41;101780.34;5032528;28;20040;-61
2022/01/19 07:56:47;;;;;;;27.50;13.07;;;;;;;3.33;81.01;101789.34;5032280;28;20414;-61
2022/01/19 07:59:13;;;;;;;48.35;24.42;;;;;;;3.41;82.03;101772.84;5032166;28;20033;-61
2022/01/19 08:01:38;;;;;;;33.55;17.20;;;;;;;2.81;80.15;101743.34;5031810;28;20037;-61
2022/01/19 08:04:04;;;;;;;19.95;11.70;;;;;;;3.10;82.41;101727.53;5032368;28;20028;-61
2022/01/19 08:06:30;;;;;;;22.83;14.13;;;;;;;3.29;84.10;101761.56;5032276;28;20162;-61
2022/01/19 08:08:55;;;;;;;23.80;13.88;;;;;;;3.34;82.40;101750.88;5032082;28;20069;-61
2022/01/19 08:11:21;;;;;;;18.67;10.43;;;;;;;2.79;81.76;101688.88;5032204;28;20529;-60
2022/01/19 08:13:47;;;;;;;20.40;12.00;;;;;;;3.60;80.75;101756.66;5031403;28;20033;-61
2022/01/19 08:16:12;;;;;;;13.85;7.28;;;;;;;3.63;82.48;101761.75;5031142;28;20083;-62
2022/01/19 08:18:38;;;;;;;10.07;5.70;;;;;;;2.97;81.54;101732.13;5031716;28;20483;-61
2022/01/19 08:21:03;;;;;;;13.00;6.70;;;;;;;3.20;79.42;101749.59;5031783;28;20128;-61
2022/01/19 08:23:29;;;;;;;14.55;6.90;;;;;;;3.02;80.08;101773.28;5031969;28;20029;-61
2022/01/19 08:25:54;;;;;;;15.93;7.43;;;;;;;3.13;78.95;101740.16;5031912;28;20036;-61
2022/01/19 08:28:20;;;;;;;9.98;4.50;;;;;;;2.71;78.17;101695.31;5031638;28;20087;-61
2022/01/19 08:30:46;;;;;;;29.75;13.18;;;;;;;3.22;78.16;101768.09;5031257;28;20506;-62
2022/01/19 08:33:12;;;;;;;10.75;6.07;;;;;;;3.17;77.17;101721.84;5031798;28;20036;-61
2022/01/19 08:35:38;;;;;;;25.00;12.30;;;;;;;3.16;77.07;101724.34;5031805;28;20034;-62
2022/01/19 08:38:03;;;;;;;15.45;8.98;;;;;;;3.16;76.13;101715.13;5031371;28;20332;-62
2022/01/19 08:40:30;;;;;;;8.27;4.82;;;;;;;3.03;76.54;101728.13;5031416;28;20033;-61
2022/01/19 08:42:56;;;;;;;19.33;8.90;;;;;;;3.05;75.89;101720.66;5031658;28;20056;-61
2022/01/19 08:45:22;;;;;;;9.23;4.65;;;;;;;3.16;75.85;101699.22;5030974;28;20029;-61
2022/01/19 08:47:47;;;;;;;10.77;5.00;;;;;;;3.14;74.61;101700.81;5031442;28;20056;-62
2022/01/19 08:50:15;;;;;;;11.15;6.25;;;;;;;3.12;74.34;101703.28;5031251;28;20491;-61
2022/01/19 08:52:42;;;;;;;51.67;23.00;;;;;;;3.19;75.36;101715.22;5031254;28;20045;-61
2022/01/19 08:55:08;;;;;;;65.47;32.78;;;;;;;3.50;73.99;101755.53;5031115;28;20036;-61
2022/01/19 08:57:33;;;;;;;13.63;7.07;;;;;;;3.54;73.06;101736.38;5030930;28;20045;-62
2022/01/19 08:59:58;;;;;;;35.08;17.23;;;;;;;3.42;73.07;101706.72;5030829;28;20096;-62
2022/01/19 09:02:24;;;;;;;14.25;7.13;;;;;;;3.19;73.41;101691.78;5031287;28;20465;-61
2022/01/19 09:04:50;;;;;;;53.97;27.58;;;;;;;3.67;72.71;101750.97;5030971;28;20030;-61
2022/01/19 09:07:15;;;;;;;24.13;11.60;;;;;;;3.46;70.17;101685.88;5031211;28;20044;-61
2022/01/19 09:09:41;;;;;;;64.43;32.70;;;;;;;4.03;70.03;101751.16;5030935;28;20056;-62
2022/01/19 09:12:07;;;;;;;24.05;13.43;;;;;;;3.84;69.62;101737.25;5029658;28;20406;-61
2022/01/19 09:14:32;;;;;;;32.63;18.92;;;;;;;3.81;68.45;101706.94;5030482;28;20029;-62
2022/01/19 09:16:58;;;;;;;34.10;18.02;;;;;;;4.08;68.55;101706.84;5031068;28;20026;-62
2022/01/19 09:19:24;;;;;;;28.92;12.60;;;;;;;4.03;67.04;101734.41;5030961;28;20125;-61
2022/01/19 09:21:50;;;;;;;19.55;10.60;;;;;;;3.90;67.27;101701.31;5030664;28;20151;-62
2022/01/19 09:24:17;;;;;;;7.97;4.75;;;;;;;3.75;65.79;101675.75;5030955;28;20524;-61
2022/01/19 09:26:42;;;;;;;10.52;6.13;;;;;;;4.33;67.73;101725.13;5030780;28;20025;-61
2022/01/19 09:29:08;;;;;;;8.90;4.60;;;;;;;4.10;65.59;101716.13;5030750;28;20129;-61
2022/01/19 09:31:35;;;;;;;10.25;5.05;;;;;;;4.36;65.72;101719.31;5030500;28;20044;-62
2022/01/19 09:34:13;;;;;;;8.80;4.70;;;;;;;4.49;65.13;101672.63;5030722;28;20021;-61
2022/01/19 09:36:46;;;;;;;11.00;6.85;;;;;;;4.45;64.59;101714.50;5030579;28;20033;-62
2022/01/19 09:39:15;;;;;;;7.10;3.22;;;;;;;4.37;63.62;101673.19;5030651;28;20149;-61
2022/01/19 09:41:41;;;;;;;14.93;8.65;;;;;;;4.47;62.22;101677.63;5030064;28;20038;-61
2022/01/19 09:44:08;;;;;;;10.93;6.18;;;;;;;4.56;61.69;101695.47;5030384;28;20460;-61
2022/01/19 09:46:34;;;;;;;7.95;4.35;;;;;;;4.42;62.39;101671.63;5030486;28;20041;-62
2022/01/19 09:48:59;;;;;;;8.45;4.32;;;;;;;4.44;62.08;101657.41;5030497;28;20074;-62
2022/01/19 09:51:26;;;;;;;7.68;4.47;;;;;;;4.47;61.04;101644.03;5030469;28;20469;-61
2022/01/19 09:53:51;;;;;;;11.75;5.70;;;;;;;4.77;60.79;101680.03;5030464;28;20029;-61
2022/01/19 09:56:19;;;;;;;6.65;3.83;;;;;;;4.42;61.43;101612.91;5030104;28;20047;-61
2022/01/19 09:58:44;;;;;;;18.48;9.65;;;;;;;4.95;59.72;101672.88;5030360;28;20033;-61
2022/01/19 10:01:10;;;;;;;15.65;6.70;;;;;;;5.00;59.84;101677.19;5030250;28;20037;-61
2022/01/19 10:03:35;;;;;;;12.23;5.30;;;;;;;4.71;59.62;101653.03;5030362;28;20021;-62
2022/01/19 10:06:10;;;;;;;9.82;4.28;;;;;;;5.14;58.83;101680.00;5030481;28;20036;-61
2022/01/19 10:08:41;;;;;;;15.20;6.57;;;;;;;5.03;58.27;101692.38;5030138;28;20044;-61
2022/01/19 10:11:15;;;;;;;8.70;4.78;;;;;;;5.16;58.59;101685.94;5030283;28;20040;-62
2022/01/19 10:17:00;;;;;;;21.08;7.72;;;;;;;5.22;56.59;101673.47;5030494;28;20048;-62
2022/01/19 10:19:31;;;;;;;9.52;3.97;;;;;;;5.25;57.92;101664.28;5029933;28;20036;-60
2022/01/19 10:22:12;;;;;;;11.98;5.32;;;;;;;5.29;55.97;101652.59;5030086;28;20033;-60
2022/01/19 10:24:39;;;;;;;12.85;5.43;;;;;;;5.61;57.03;101659.13;5030204;28;20477;-61
2022/01/19 10:27:25;;;;;;;14.25;6.57;;;;;;;5.84;56.04;101654.56;5030107;28;20099;-61
2022/01/19 10:30:02;;;;;;;16.40;7.43;;;;;;;6.09;56.86;101659.19;5029874;28;20556;-61
2022/01/19 10:32:29;;;;;;;25.30;9.80;;;;;;;5.82;56.13;101608.22;5029770;28;20473;-60
2022/01/19 10:34:55;;;;;;;9.77;5.78;;;;;;;5.64;55.66;101601.19;5030025;28;20034;-62
2022/01/19 10:37:24;;;;;;;14.13;7.18;;;;;;;5.83;55.20;101630.09;5030352;28;20037;-62
2022/01/19 10:39:51;;;;;;;9.75;4.88;;;;;;;5.99;56.19;101601.81;5033801;28;20021;-62
2022/01/19 10:42:22;;;;;;;8.13;4.95;;;;;;;5.68;55.36;101612.16;5033576;28;20061;-62
2022/01/19 10:44:55;;;;;;;6.53;3.65;;;;;;;5.86;54.88;101625.97;5032653;28;20407;-62
2022/01/19 10:47:50;;;;;;;10.30;4.93;;;;;;;6.12;54.72;101619.72;5033784;28;20026;-61
2022/01/19 10:50:30;;;;;;;7.72;4.03;;;;;;;5.92;53.81;101610.13;5033431;28;20495;-60
2022/01/19 10:52:58;;;;;;;8.23;4.53;;;;;;;5.86;55.32;101559.53;5033580;28;20041;-61
2022/01/19 10:55:33;;;;;;;6.70;3.67;;;;;;;6.06;53.22;101601.09;5031843;28;20470;-61
2022/01/19 10:58:00;;;;;;;7.78;4.30;;;;;;;6.22;52.47;101597.97;5033531;28;20048;-62
2022/01/19 11:00:34;;;;;;;7.43;3.80;;;;;;;6.21;53.12;101581.13;5033316;28;20571;-61
2022/01/19 11:03:17;;;;;;;10.70;5.05;;;;;;;6.32;53.60;101582.13;5033450;28;20527;-61
2022/01/19 11:05:52;;;;;;;13.50;6.85;;;;;;;6.29;52.15;101576.19;5033244;28;20510;-61
2022/01/19 11:08:21;;;;;;;10.52;6.03;;;;;;;6.25;50.53;101527.34;5032207;28;20052;-61
2022/01/19 11:10:49;;;;;;;8.27;4.60;;;;;;;6.28;49.52;101554.31;5033256;28;20139;-61
2022/01/19 11:13:28;;;;;;;6.70;3.80;;;;;;;6.08;49.62;101522.03;5032933;28;20028;-61
2022/01/19 11:15:55;;;;;;;7.65;4.00;;;;;;;6.27;48.82;101561.03;5033253;28;20037;-61
2022/01/19 11:18:25;;;;;;;8.48;4.32;;;;;;;6.37;48.28;101527.50;5032814;28;20021;-61
2022/01/19 11:20:51;;;;;;;6.63;3.72;;;;;;;6.36;46.94;101499.72;5033083;28;20060;-61
2022/01/19 11:24:05;;;;;;;7.50;4.75;;;;;;;7.50;47.04;101554.16;5032845;28;20037;-61
2022/01/19 11:26:31;;;;;;;10.57;5.30;;;;;;;6.86;47.10;101506.25;5010814;28;20048;-61
2022/01/19 11:29:18;;;;;;;6.63;4.03;;;;;;;6.77;46.12;101476.66;4994403;28;20038;-61
2022/01/19 11:31:43;;;;;;;4.93;2.70;;;;;;;7.68;46.78;101528.19;5025696;28;20042;-61
2022/01/19 11:34:09;;;;;;;4.47;2.50;;;;;;;7.19;45.88;101526.84;5032703;28;20040;-61
2022/01/19 11:36:42;;;;;;;8.55;4.15;;;;;;;7.63;44.80;101530.66;5032478;28;20423;-61
2022/01/19 11:39:23;;;;;;;7.72;3.30;;;;;;;7.68;44.32;101477.56;5032684;28;20029;-61
2022/01/19 11:41:56;;;;;;;7.00;4.55;;;;;;;7.71;44.51;101526.50;5032695;28;20103;-61
2022/01/19 11:44:28;;;;;;;7.47;4.45;;;;;;;7.75;44.74;101517.25;5032202;28;20112;-61
2022/01/19 11:46:55;;;;;;;8.75;5.05;;;;;;;7.91;44.59;101508.94;5030911;28;20052;-61
2022/01/19 11:49:45;;;;;;;6.22;3.20;;;;;;;7.73;42.81;101497.00;5032340;28;20067;-61
2022/01/19 11:52:10;;;;;;;4.93;3.25;;;;;;;7.64;42.07;101483.44;5032406;28;20065;-61
2022/01/19 11:54:37;;;;;;;5.20;3.28;;;;;;;8.43;42.84;101495.81;5031064;28;20061;-61
2022/01/19 11:57:12;;;;;;;30.95;21.80;;;;;;;8.10;42.27;101495.56;5032126;28;20038;-61
2022/01/19 11:59:43;;;;;;;7.43;4.47;;;;;;;8.03;42.21;101493.84;5032505;28;20030;-61
2022/01/19 12:02:21;;;;;;;17.40;11.15;;;;;;;8.57;42.81;101485.75;5032248;28;20052;-61
2022/01/19 12:04:54;;;;;;;10.85;5.93;;;;;;;7.81;44.73;101404.25;5032040;28;20025;-61
2022/01/19 12:07:38;;;;;;;6.63;3.42;;;;;;;7.51;45.16;101467.28;5031827;28;20025;-61
2022/01/19 12:10:11;;;;;;;7.00;3.45;;;;;;;7.80;44.61;101472.59;5032265;28;20116;-61
2022/01/19 12:12:45;;;;;;;6.35;3.50;;;;;;;7.13;45.19;101429.84;5032041;28;20025;-61
2022/01/19 12:15:55;;;;;;;10.63;4.65;;;;;;;7.70;45.06;101473.34;5032158;28;20403;-61
2022/01/19 12:18:45;;;;;;;10.35;5.18;;;;;;;8.37;44.60;101485.66;5031753;28;20040;-61
2022/01/19 12:21:14;;;;;;;7.57;4.15;;;;;;;7.60;45.14;101401.59;5031965;28;20030;-60
2022/01/19 12:23:42;;;;;;;7.00;4.30;;;;;;;8.26;45.05;101446.72;5032007;28;20044;-61
2022/01/19 12:26:10;;;;;;;8.45;5.50;;;;;;;7.90;47.13;101424.53;5031584;28;20112;-61
2022/01/19 12:28:53;;;;;;;9.65;6.10;;;;;;;7.97;46.45;101422.03;5031595;28;20029;-60
2022/01/19 12:31:24;;;;;;;8.65;5.25;;;;;;;8.01;46.37;101484.53;5031819;28;20033;-61
2022/01/19 12:34:02;;;;;;;7.78;5.07;;;;;;;7.90;45.90;101475.19;5031647;28;20025;-61
2022/01/19 12:36:52;;;;;;;11.50;6.63;;;;;;;8.21;46.20;101478.78;5031443;28;20041;-61
2022/01/19 12:39:26;;;;;;;14.20;5.90;;;;;;;7.62;46.00;101480.03;5031685;28;20100;-62
2022/01/19 12:42:30;;;;;;;7.78;4.63;;;;;;;8.65;45.30;101479.88;5031448;28;20044;-61
2022/01/19 12:45:00;;;;;;;11.15;6.15;;;;;;;7.97;46.66;101424.56;5027924;28;20112;-61
2022/01/19 12:47:28;;;;;;;33.97;15.70;;;;;;;7.69;46.47;101477.56;5031094;28;20040;-60
2022/01/19 12:49:55;;;;;;;26.08;18.42;;;;;;;7.63;47.04;101471.59;5031296;28;20180;-62
2022/01/19 12:52:24;;;;;;;26.15;19.30;;;;;;;8.22;45.88;101462.72;5030794;28;20064;-60
2022/01/19 12:54:52;;;;;;;16.90;11.38;;;;;;;8.77;45.38;101455.41;5029899;28;20025;-62
2022/01/19 12:57:18;;;;;;;20.05;14.40;;;;;;;8.95;44.29;101415.72;5031078;28;20030;-61
2022/01/19 12:59:47;;;;;;;20.90;13.52;;;;;;;8.17;45.64;101428.94;5031239;28;20584;-61
2022/01/19 13:02:15;;;;;;;18.38;13.25;;;;;;;8.32;46.70;101434.09;5030653;28;20044;-61
2022/01/19 13:04:43;;;;;;;32.00;20.67;;;;;;;8.23;46.13;101450.91;5030891;28;20463;-61
2022/01/19 13:07:22;;;;;;;12.60;9.10;;;;;;;8.63;44.76;101455.34;5031224;28;20021;-63
2022/01/19 13:10:38;;;;;;;12.93;9.90;;;;;;;8.35;45.56;101454.38;5031026;28;20025;-61
2022/01/19 13:13:18;;;;;;;11.10;8.23;;;;;;;9.76;43.53;101434.34;5031088;28;20042;-62